Time;durP1;ratioP1;P1;durP2;ratioP2;P2;SDS_P1;SDS_P2;PMS_P1;PMS_P2;Temp;Humidity;BMP_temperature;BMP_pressure;BME280_temperature;BME280_humidity;BME280_pressure;Samples;Min_cycle;Max_cycle;Signal;HPM_P1;HPM_P2
2023/12/10 00:02:01;;;;;;;38.43;13.37;;;;;3.70;94803.00;;;;8301518;28;20228;-81
2023/12/10 00:06:07;;;;;;;32.90;10.23;;;;;3.80;94805.00;;;;8312310;28;20239;-80
2023/12/10 00:10:16;;;;;;;36.60;11.77;;;;;3.80;94819.00;;;;8305016;28;21815;-83
2023/12/10 00:14:20;;;;;;;32.53;11.90;;;;;3.90;94829.00;;;;8303651;28;20656;-82
2023/12/10 00:18:23;;;;;;;48.50;12.77;;;;;3.90;94852.00;;;;8307658;28;20236;-82
2023/12/10 00:22:28;;;;;;;45.70;11.63;;;;;3.90;94849.00;;;;8298106;28;20291;-83
2023/12/10 00:26:31;;;;;;;49.30;12.67;;;;;3.90;94848.00;;;;8309399;28;21127;-82
2023/12/10 00:30:36;;;;;;;46.20;12.40;;;;;3.90;94865.00;;;;8302514;28;20598;-81
2023/12/10 00:34:40;;;;;;;46.47;11.80;;;;;4.00;94872.00;;;;8301550;28;20271;-82
2023/12/10 00:38:45;;;;;;;41.23;12.70;;;;;4.00;94898.00;;;;8302337;28;20236;-81
2023/12/10 00:42:48;;;;;;;32.00;10.47;;;;;4.10;94892.00;;;;8312450;28;20197;-83
2023/12/10 00:46:51;;;;;;;21.47;8.90;;;;;4.20;94895.00;;;;8305932;28;20193;-85
2023/12/10 00:50:55;;;;;;;26.63;8.97;;;;;4.30;94921.00;;;;8305304;28;20438;-87
2023/12/10 00:54:59;;;;;;;21.70;8.17;;;;;4.40;94924.00;;;;8303542;28;20201;-85
2023/12/10 00:59:02;;;;;;;20.23;7.30;;;;;4.60;94927.00;;;;8307450;28;20644;-84
2023/12/10 01:03:06;;;;;;;20.13;7.30;;;;;4.70;94934.00;;;;8306490;28;20239;-84
2023/12/10 01:07:11;;;;;;;14.70;6.83;;;;;4.80;94948.00;;;;8300462;28;21071;-85
2023/12/10 01:11:15;;;;;;;11.73;5.70;;;;;4.80;94941.00;;;;8296178;28;20208;-85
2023/12/10 01:15:29;;;;;;;13.57;5.93;;;;;4.90;94948.00;;;;8304049;28;20211;-86
2023/12/10 01:19:33;;;;;;;11.77;4.93;;;;;4.90;94949.00;;;;8310879;28;21459;-82
2023/12/10 01:23:36;;;;;;;7.13;4.10;;;;;5.00;94955.00;;;;8306173;28;20239;-82
2023/12/10 01:27:43;;;;;;;12.73;5.20;;;;;5.00;94974.00;;;;8279781;28;20213;-80
2023/12/10 01:31:46;;;;;;;11.20;4.50;;;;;5.20;94972.00;;;;8305209;28;20202;-83
2023/12/10 01:35:49;;;;;;;7.20;4.07;;;;;5.20;94987.00;;;;8299936;28;20278;-80
2023/12/10 01:39:53;;;;;;;5.77;3.03;;;;;5.30;95000.00;;;;8309831;28;20658;-82
2023/12/10 01:43:57;;;;;;;5.30;2.33;;;;;5.40;95009.00;;;;8307999;28;20230;-79
2023/12/10 01:48:06;;;;;;;11.13;2.97;;;;;5.40;95025.00;;;;8305299;28;20638;-77
2023/12/10 01:52:09;;;;;;;9.10;2.37;;;;;5.50;95051.00;;;;8307356;28;20208;-80
2023/12/10 01:56:12;;;;;;;7.73;2.23;;;;;5.50;95045.00;;;;8309720;28;20336;-81
2023/12/10 02:00:18;;;;;;;10.50;2.07;;;;;5.60;95043.00;;;;8313762;28;20303;-81
2023/12/10 02:04:22;;;;;;;20.27;2.50;;;;;5.60;95058.00;;;;8323316;28;20233;-81
2023/12/10 02:08:25;;;;;;;10.40;2.20;;;;;5.60;95064.00;;;;8316882;28;20202;-82
2023/12/10 02:12:29;;;;;;;14.67;2.37;;;;;5.60;95081.00;;;;8304018;28;20206;-79
2023/12/10 02:16:34;;;;;;;12.90;2.47;;;;;5.60;95087.00;;;;8310400;28;20231;-81
2023/12/10 02:20:37;;;;;;;15.50;2.33;;;;;5.70;95093.00;;;;8316897;28;20296;-81
2023/12/10 02:24:45;;;;;;;12.30;2.30;;;;;5.70;95107.00;;;;8311471;28;20893;-82
2023/12/10 02:28:50;;;;;;;22.87;2.77;;;;;5.70;95096.00;;;;8310767;28;20208;-81
2023/12/10 02:32:53;;;;;;;27.37;2.57;;;;;5.60;95097.00;;;;8299423;28;20925;-82
2023/12/10 02:36:57;;;;;;;16.90;2.50;;;;;5.50;95120.00;;;;8313995;28;20225;-81
2023/12/10 02:41:00;;;;;;;30.43;2.40;;;;;5.50;95137.00;;;;8309580;28;20293;-85
2023/12/10 02:45:05;;;;;;;18.00;2.57;;;;;5.50;95139.00;;;;8318899;28;20219;-84
2023/12/10 02:49:08;;;;;;;15.43;2.47;;;;;5.50;95145.00;;;;8314295;28;20288;-81
2023/12/10 02:53:11;;;;;;;4.93;1.57;;;;;5.60;95152.00;;;;8320310;28;20207;-84
2023/12/10 02:57:15;;;;;;;13.93;2.67;;;;;5.60;95151.00;;;;8319511;28;20330;-84
2023/12/10 03:01:19;;;;;;;18.77;2.40;;;;;5.50;95165.00;;;;8337560;22;20320;-82
2023/12/10 03:05:22;;;;;;;27.00;2.63;;;;;5.50;95175.00;;;;8355755;22;20298;-81
2023/12/10 03:09:26;;;;;;;13.37;2.07;;;;;5.60;95189.00;;;;8339355;28;20201;-84
2023/12/10 03:13:29;;;;;;;15.90;2.20;;;;;5.60;95194.00;;;;8337169;28;20205;-85
2023/12/10 03:17:34;;;;;;;15.27;2.17;;;;;5.50;95219.00;;;;8332149;28;20311;-80
2023/12/10 03:21:37;;;;;;;15.90;2.47;;;;;5.50;95207.00;;;;8340983;28;20262;-78
2023/12/10 03:25:40;;;;;;;9.33;2.13;;;;;5.50;95220.00;;;;8347343;28;20212;-79
2023/12/10 03:29:44;;;;;;;11.63;2.03;;;;;5.50;95211.00;;;;8333954;28;20855;-77
2023/12/10 03:33:50;;;;;;;18.33;2.07;;;;;5.50;95227.00;;;;8325346;28;20654;-80
2023/12/10 03:37:53;;;;;;;17.93;2.87;;;;;5.50;95248.00;;;;8334228;28;20224;-77
2023/12/10 03:41:57;;;;;;;21.23;4.60;;;;;5.50;95251.00;;;;8339625;28;20297;-77
2023/12/10 03:46:00;;;;;;;22.07;2.83;;;;;5.40;95256.00;;;;8325661;28;20251;-80
2023/12/10 03:50:05;;;;;;;29.23;3.53;;;;;5.50;95267.00;;;;8343603;28;20205;-81
2023/12/10 03:54:08;;;;;;;16.93;2.80;;;;;5.50;95272.00;;;;8336585;28;21039;-83
2023/12/10 03:58:12;;;;;;;26.17;3.50;;;;;5.60;95283.00;;;;8337616;28;20224;-80
2023/12/10 04:02:15;;;;;;;25.77;3.27;;;;;5.60;95291.00;;;;8329598;28;20233;-78
2023/12/10 04:06:19;;;;;;;28.67;3.63;;;;;5.70;95278.00;;;;8296367;28;20524;-80
2023/12/10 04:10:23;;;;;;;37.73;3.80;;;;;5.80;95306.00;;;;8305966;28;20205;-76
2023/12/10 04:14:26;;;;;;;23.53;3.60;;;;;5.80;95309.00;;;;8314393;28;20226;-81
2023/12/10 04:18:29;;;;;;;24.70;3.10;;;;;5.80;95302.00;;;;8300094;28;20225;-77
2023/12/10 04:22:34;;;;;;;31.90;3.73;;;;;5.80;95314.00;;;;8319674;28;20754;-79
2023/12/10 04:26:37;;;;;;;36.53;3.27;;;;;5.80;95316.00;;;;8296889;28;20672;-82
2023/12/10 04:30:40;;;;;;;27.73;3.47;;;;;5.80;95330.00;;;;8304058;28;20960;-85
2023/12/10 04:34:44;;;;;;;30.17;3.83;;;;;5.80;95343.00;;;;8309665;28;20293;-82
2023/12/10 04:38:48;;;;;;;26.53;3.03;;;;;5.70;95349.00;;;;8301223;28;20226;-84
2023/12/10 04:42:52;;;;;;;34.90;3.60;;;;;5.60;95369.00;;;;8308531;28;20324;-83
2023/12/10 04:46:55;;;;;;;45.67;5.03;;;;;5.60;95381.00;;;;8319950;28;20237;-86
2023/12/10 04:50:59;;;;;;;27.23;3.97;;;;;5.60;95384.00;;;;8312132;28;20209;-84
2023/12/10 04:55:04;;;;;;;32.07;3.07;;;;;5.60;95391.00;;;;8294447;28;20752;-81
2023/12/10 04:59:07;;;;;;;45.97;5.07;;;;;5.60;95397.00;;;;8311814;28;20236;-80
2023/12/10 05:03:11;;;;;;;31.97;3.40;;;;;5.50;95394.00;;;;8313135;28;20227;-82
2023/12/10 05:07:14;;;;;;;30.83;3.63;;;;;5.50;95402.00;;;;8344066;28;20204;-79
2023/12/10 05:11:18;;;;;;;31.50;4.13;;;;;5.50;95407.00;;;;8344911;28;20568;-82
2023/12/10 05:15:22;;;;;;;47.40;4.80;;;;;5.40;95419.00;;;;8347286;28;20721;-76
2023/12/10 05:19:25;;;;;;;34.40;3.30;;;;;5.40;95423.00;;;;8344494;28;20271;-79
2023/12/10 05:23:28;;;;;;;24.50;3.37;;;;;5.40;95437.00;;;;8350876;28;20201;-79
2023/12/10 05:27:33;;;;;;;32.43;3.67;;;;;5.40;95440.00;;;;8346860;28;20205;-77
2023/12/10 05:31:36;;;;;;;27.33;3.87;;;;;5.40;95435.00;;;;8344344;28;20200;-80
2023/12/10 05:35:40;;;;;;;25.83;3.43;;;;;5.50;95460.00;;;;8346564;28;20197;-79
2023/12/10 05:39:44;;;;;;;30.47;3.40;;;;;5.50;95462.00;;;;8353505;28;20357;-77
2023/12/10 05:43:48;;;;;;;19.37;2.97;;;;;5.40;95463.00;;;;8348302;28;20201;-79
2023/12/10 05:47:51;;;;;;;23.83;3.53;;;;;5.40;95453.00;;;;8344950;28;20314;-79
2023/12/10 05:51:55;;;;;;;21.83;2.80;;;;;5.30;95468.00;;;;8343080;28;20208;-79
2023/12/10 05:55:58;;;;;;;21.60;3.20;;;;;5.30;95468.00;;;;8353570;28;20205;-78
2023/12/10 06:00:07;;;;;;;24.63;2.47;;;;;5.30;95479.00;;;;8345885;28;20861;-77
2023/12/10 06:04:10;;;;;;;14.70;2.90;;;;;5.30;95491.00;;;;8354927;28;20719;-77
2023/12/10 06:08:13;;;;;;;28.27;2.73;;;;;5.20;95490.00;;;;8357119;28;20196;-77
2023/12/10 06:12:17;;;;;;;19.97;2.93;;;;;5.30;95490.00;;;;8349213;28;20203;-79
2023/12/10 06:16:22;;;;;;;25.73;3.33;;;;;5.30;95497.00;;;;8351641;28;20270;-79
2023/12/10 06:20:25;;;;;;;16.83;2.60;;;;;5.30;95510.00;;;;8350583;28;20318;-80
2023/12/10 06:24:28;;;;;;;16.87;2.77;;;;;5.30;95514.00;;;;8350769;28;20296;-78
2023/12/10 06:28:32;;;;;;;13.77;2.87;;;;;5.20;95532.00;;;;8352465;28;20280;-78
2023/12/10 06:32:36;;;;;;;23.87;3.30;;;;;5.20;95547.00;;;;8350618;28;20238;-77
2023/12/10 06:36:40;;;;;;;16.90;2.70;;;;;5.20;95548.00;;;;8347212;28;20251;-78
2023/12/10 06:40:44;;;;;;;14.40;2.23;;;;;5.30;95551.00;;;;8347251;28;20270;-79
2023/12/10 06:44:47;;;;;;;15.57;2.63;;;;;5.30;95572.00;;;;8348294;28;20844;-80
2023/12/10 06:48:52;;;;;;;17.83;3.30;;;;;5.30;95578.00;;;;8348794;28;20673;-81
2023/12/10 06:52:55;;;;;;;11.53;2.63;;;;;5.20;95581.00;;;;8348462;28;20287;-76
2023/12/10 06:56:59;;;;;;;21.67;4.03;;;;;5.20;95590.00;;;;8346607;28;20627;-73
2023/12/10 07:01:02;;;;;;;20.93;3.50;;;;;5.20;95599.00;;;;8347857;28;20224;-74
2023/12/10 07:05:07;;;;;;;22.93;2.73;;;;;5.20;95601.00;;;;8345383;28;20251;-75
2023/12/10 07:09:12;;;;;;;18.43;3.17;;;;;5.10;95615.00;;;;8343378;28;20278;-74
2023/12/10 07:13:15;;;;;;;17.07;2.73;;;;;5.20;95623.00;;;;8346443;28;20623;-73
2023/12/10 07:17:18;;;;;;;16.20;2.77;;;;;5.20;95618.00;;;;8344383;28;20284;-75
2023/12/10 07:21:23;;;;;;;23.27;5.60;;;;;5.10;95624.00;;;;8347945;28;20976;-74
2023/12/10 07:25:27;;;;;;;18.63;2.77;;;;;5.10;95637.00;;;;8344108;28;20262;-74
2023/12/10 07:29:30;;;;;;;20.03;2.87;;;;;5.20;95645.00;;;;8348035;28;20284;-74
2023/12/10 07:33:33;;;;;;;15.10;2.60;;;;;5.30;95658.00;;;;8348016;28;20244;-74
2023/12/10 07:37:38;;;;;;;12.57;2.53;;;;;5.40;95659.00;;;;8352472;28;20995;-74
2023/12/10 07:41:41;;;;;;;17.07;2.73;;;;;5.50;95680.00;;;;8346932;28;20228;-74
2023/12/10 07:45:44;;;;;;;17.83;3.37;;;;;5.30;95700.00;;;;8343282;28;20287;-76
2023/12/10 07:49:47;;;;;;;15.07;2.97;;;;;5.20;95698.00;;;;8348752;28;20294;-78
2023/12/10 07:53:52;;;;;;;15.63;3.03;;;;;5.20;95721.00;;;;8347928;28;20201;-79
2023/12/10 07:57:55;;;;;;;20.00;5.13;;;;;5.40;95725.00;;;;8351493;28;20227;-76
2023/12/10 08:02:01;;;;;;;15.57;3.30;;;;;5.40;95716.00;;;;8344022;28;20212;-76
2023/12/10 08:06:04;;;;;;;114.73;52.53;;;;;5.40;95730.00;;;;8345671;28;20287;-77
2023/12/10 08:10:10;;;;;;;150.00;89.03;;;;;5.40;95730.00;;;;8343559;28;20197;-74
2023/12/10 08:14:13;;;;;;;153.80;95.87;;;;;5.40;95727.00;;;;8345752;28;20685;-74
2023/12/10 08:18:16;;;;;;;33.03;14.87;;;;;5.50;95727.00;;;;8351321;28;20653;-72
2023/12/10 08:22:19;;;;;;;46.43;29.00;;;;;5.60;95724.00;;;;8347520;28;20193;-72
2023/12/10 08:26:24;;;;;;;41.07;30.07;;;;;5.70;95727.00;;;;8340267;28;20312;-71
2023/12/10 08:30:27;;;;;;;82.67;57.17;;;;;5.80;95728.00;;;;8341912;28;20208;-71
2023/12/10 08:34:30;;;;;;;47.10;32.10;;;;;5.80;95746.00;;;;8345862;28;20201;-71
2023/12/10 08:38:34;;;;;;;35.83;19.07;;;;;5.90;95739.00;;;;8344086;28;20847;-71
2023/12/10 08:42:38;;;;;;;56.57;34.30;;;;;6.00;95743.00;;;;8338243;28;20204;-71
2023/12/10 08:46:42;;;;;;;26.73;7.33;;;;;6.00;95747.00;;;;8343663;28;20197;-70
2023/12/10 08:50:50;;;;;;;18.90;6.13;;;;;6.20;95754.00;;;;8339948;28;20189;-71
2023/12/10 08:54:53;;;;;;;23.00;3.70;;;;;6.30;95763.00;;;;8336684;28;20240;-71
2023/12/10 08:59:00;;;;;;;17.27;2.87;;;;;6.30;95768.00;;;;8332512;28;20278;-70
2023/12/10 09:03:04;;;;;;;20.60;3.60;;;;;6.20;95773.00;;;;8331137;28;20239;-75
2023/12/10 09:07:07;;;;;;;13.47;2.70;;;;;6.10;95768.00;;;;8337121;28;20272;-75
2023/12/10 09:11:10;;;;;;;13.83;2.43;;;;;6.10;95770.00;;;;8329698;28;20206;-75
2023/12/10 09:15:15;;;;;;;14.83;2.27;;;;;6.10;95768.00;;;;8330368;28;20210;-73
2023/12/10 09:19:21;;;;;;;19.77;2.97;;;;;6.00;95772.00;;;;8334993;28;21073;-73
2023/12/10 09:23:25;;;;;;;20.83;3.77;;;;;6.00;95775.00;;;;8332772;28;20201;-74
2023/12/10 09:27:29;;;;;;;21.90;3.83;;;;;6.00;95783.00;;;;8333023;28;20562;-75
2023/12/10 09:31:34;;;;;;;16.73;2.90;;;;;6.10;95793.00;;;;8332676;28;20209;-75
2023/12/10 09:35:37;;;;;;;22.70;3.50;;;;;6.20;95792.00;;;;8328221;28;20229;-76
2023/12/10 09:39:41;;;;;;;17.37;3.33;;;;;6.10;95778.00;;;;8338094;28;20719;-75
2023/12/10 09:43:44;;;;;;;11.30;2.63;;;;;6.30;95794.00;;;;8343762;28;20859;-73
2023/12/10 09:47:50;;;;;;;12.83;3.30;;;;;6.40;95795.00;;;;8338007;28;20248;-73
2023/12/10 09:51:54;;;;;;;15.83;3.17;;;;;6.50;95799.00;;;;8342251;28;20971;-73
2023/12/10 09:55:57;;;;;;;6.73;2.30;;;;;6.50;95792.00;;;;8342884;28;20197;-74
2023/12/10 10:00:01;;;;;;;16.37;3.97;;;;;6.50;95801.00;;;;8336655;28;20335;-75
2023/12/10 10:04:05;;;;;;;15.77;2.63;;;;;6.50;95788.00;;;;8316891;28;20311;-74
2023/12/10 10:08:08;;;;;;;22.20;3.00;;;;;6.60;95796.00;;;;8305150;28;20204;-74
2023/12/10 10:12:13;;;;;;;19.97;2.57;;;;;6.60;95793.00;;;;8302075;28;20223;-74
2023/12/10 10:16:17;;;;;;;11.17;2.00;;;;;6.70;95796.00;;;;8299374;28;20749;-75
2023/12/10 10:20:24;;;;;;;18.07;3.27;;;;;6.80;95800.00;;;;8307616;28;20233;-76
2023/12/10 10:24:27;;;;;;;8.57;2.50;;;;;6.90;95795.00;;;;8312086;28;20225;-76
2023/12/10 10:28:33;;;;;;;25.53;2.80;;;;;7.00;95789.00;;;;8310468;28;20209;-76
2023/12/10 10:32:37;;;;;;;22.17;2.57;;;;;7.00;95803.00;;;;8300812;28;20716;-74
2023/12/10 10:36:42;;;;;;;9.13;3.73;;;;;7.20;95802.00;;;;8314057;28;20206;-74
2023/12/10 10:40:46;;;;;;;9.43;2.10;;;;;7.20;95797.00;;;;8313269;28;20261;-77
2023/12/10 10:44:49;;;;;;;12.93;2.10;;;;;7.30;95809.00;;;;8313866;28;20286;-75
2023/12/10 10:48:53;;;;;;;6.80;2.30;;;;;7.30;95819.00;;;;8310195;28;20282;-76
2023/12/10 10:52:58;;;;;;;14.82;2.97;;;;;7.30;95813.00;;;;8328445;28;20206;-76
2023/12/10 10:57:02;;;;;;;12.80;2.27;;;;;7.30;95817.00;;;;8325236;28;20293;-75
2023/12/10 11:01:05;;;;;;;12.33;2.37;;;;;7.40;95813.00;;;;8312913;28;20251;-75
2023/12/10 11:05:09;;;;;;;12.30;2.77;;;;;7.40;95807.00;;;;8341158;28;20221;-74
2023/12/10 11:09:13;;;;;;;11.93;2.07;;;;;7.40;95798.00;;;;8351941;28;20737;-76
2023/12/10 11:13:46;;;;;;;12.80;2.47;;;;;7.30;95811.00;;;;8358164;28;20212;-75
2023/12/10 11:17:51;;;;;;;13.97;2.77;;;;;7.30;95806.00;;;;8353739;28;20244;-75
2023/12/10 11:21:55;;;;;;;7.10;1.93;;;;;7.40;95812.00;;;;8349239;28;20225;-76
2023/12/10 11:25:59;;;;;;;11.97;2.30;;;;;7.70;95819.00;;;;8350789;28;20196;-75
2023/12/10 11:30:03;;;;;;;13.27;3.15;;;;;7.90;95820.00;;;;8352957;28;20307;-75
2023/12/10 11:34:06;;;;;;;7.47;2.40;;;;;8.00;95819.00;;;;8350205;28;20712;-76
2023/12/10 11:38:09;;;;;;;5.37;1.73;;;;;7.90;95825.00;;;;8351313;28;20201;-74
2023/12/10 11:42:15;;;;;;;10.43;2.10;;;;;7.80;95821.00;;;;8353033;28;20593;-76
2023/12/10 11:46:21;;;;;;;11.37;2.60;;;;;7.70;95819.00;;;;8353410;28;20205;-75
2023/12/10 11:50:34;;;;;;;8.43;2.20;;;;;7.60;95818.00;;;;8345743;28;20662;-76
2023/12/10 11:54:37;;;;;;;13.23;2.13;;;;;7.60;95836.00;;;;8349874;28;20283;-76
2023/12/10 11:58:45;;;;;;;12.45;2.45;;;;;7.70;95835.00;;;;8351382;28;20609;-76
2023/12/10 12:02:48;;;;;;;11.37;2.60;;;;;7.60;95826.00;;;;8343731;28;21073;-76
2023/12/10 12:06:52;;;;;;;11.07;2.03;;;;;7.70;95821.00;;;;8348758;28;20225;-75
2023/12/10 12:10:58;;;;;;;18.33;2.83;;;;;8.00;95820.00;;;;8352311;28;20267;-76
2023/12/10 12:15:03;;;;;;;10.07;2.40;;;;;7.90;95829.00;;;;8355168;28;20564;-76
2023/12/10 12:19:06;;;;;;;10.60;2.27;;;;;7.80;95815.00;;;;8349556;28;20288;-78
2023/12/10 12:23:09;;;;;;;11.93;2.17;;;;;7.90;95824.00;;;;8349317;28;20263;-76
2023/12/10 12:27:14;;;;;;;12.10;2.30;;;;;8.00;95831.00;;;;8344470;28;20204;-76
2023/12/10 12:31:19;;;;;;;14.43;2.47;;;;;8.10;95833.00;;;;8341995;28;20281;-76
2023/12/10 12:35:22;;;;;;;15.10;2.73;;;;;8.10;95834.00;;;;8343347;28;20292;-76
2023/12/10 12:39:25;;;;;;;8.17;1.97;;;;;7.90;95841.00;;;;8343837;28;20230;-77
2023/12/10 12:43:28;;;;;;;9.98;2.30;;;;;7.80;95835.00;;;;8353151;28;20200;-75
2023/12/10 12:47:33;;;;;;;13.77;2.50;;;;;7.60;95840.00;;;;8340398;28;20734;-76
2023/12/10 12:51:37;;;;;;;8.93;2.43;;;;;7.70;95846.00;;;;8346072;28;20223;-77
2023/12/10 12:55:41;;;;;;;16.83;2.80;;;;;7.50;95850.00;;;;8349859;28;20200;-77
2023/12/10 12:59:44;;;;;;;12.87;3.00;;;;;7.50;95851.00;;;;8343411;28;20731;-75
2023/12/10 13:03:49;;;;;;;12.93;2.40;;;;;7.60;95860.00;;;;8340975;28;21616;-78
2023/12/10 13:07:53;;;;;;;12.57;2.60;;;;;7.60;95858.00;;;;8345063;28;20254;-78
2023/12/10 13:11:56;;;;;;;19.73;3.23;;;;;7.50;95865.00;;;;8348017;28;20302;-78
2023/12/10 13:16:02;;;;;;;11.60;2.63;;;;;7.40;95885.00;;;;8347110;28;20279;-78
2023/12/10 13:20:08;;;;;;;11.70;2.30;;;;;7.30;95878.00;;;;8347747;28;20205;-79
2023/12/10 13:24:12;;;;;;;17.77;2.70;;;;;7.20;95873.00;;;;8346526;28;20288;-78
2023/12/10 13:28:15;;;;;;;14.33;2.97;;;;;7.20;95877.00;;;;8346886;28;20240;-76
2023/12/10 13:32:19;;;;;;;10.47;2.13;;;;;7.20;95880.00;;;;8344360;28;20192;-80
2023/12/10 13:36:23;;;;;;;20.87;2.90;;;;;7.30;95869.00;;;;8342070;28;20296;-80
2023/12/10 13:40:26;;;;;;;14.50;2.60;;;;;7.40;95869.00;;;;8344653;28;20283;-77
2023/12/10 13:44:30;;;;;;;12.37;3.17;;;;;7.40;95876.00;;;;8346427;28;20291;-79
2023/12/10 13:48:33;;;;;;;12.80;2.97;;;;;7.50;95875.00;;;;8343554;28;20201;-78
2023/12/10 13:52:38;;;;;;;12.73;2.67;;;;;7.50;95873.00;;;;8343632;28;20204;-80
2023/12/10 13:56:42;;;;;;;53.58;19.48;;;;;7.70;95876.00;;;;8344566;28;20201;-79
2023/12/10 14:00:45;;;;;;;528.53;262.30;;;;;7.70;95873.00;;;;8351335;28;20967;-80
2023/12/10 14:04:49;;;;;;;178.17;122.87;;;;;7.80;95875.00;;;;8327783;28;20343;-81
2023/12/10 14:08:54;;;;;;;18.07;6.67;;;;;7.70;95882.00;;;;8313259;28;20201;-81
2023/12/10 14:12:57;;;;;;;12.07;4.07;;;;;7.70;95881.00;;;;8323817;28;20911;-79
2023/12/10 14:17:00;;;;;;;16.00;4.80;;;;;7.70;95879.00;;;;8312149;28;20285;-80
2023/12/10 14:21:04;;;;;;;19.37;9.47;;;;;7.80;95885.00;;;;8317082;28;20283;-82
2023/12/10 14:25:13;;;;;;;15.65;5.63;;;;;7.80;95882.00;;;;8315955;28;20325;-80
2023/12/10 14:29:17;;;;;;;14.85;5.10;;;;;7.80;95884.00;;;;8311031;28;20756;-83
2023/12/10 14:33:20;;;;;;;14.63;3.30;;;;;7.80;95882.00;;;;8314874;28;20243;-84
2023/12/10 14:37:28;;;;;;;14.35;4.03;;;;;7.70;95881.00;;;;8316802;28;20698;-82
2023/12/10 14:41:33;;;;;;;13.82;3.72;;;;;7.60;95874.00;;;;8323547;28;20230;-84
2023/12/10 14:45:36;;;;;;;8.70;2.97;;;;;7.40;95866.00;;;;8313446;28;20236;-82
2023/12/10 14:49:39;;;;;;;9.87;3.30;;;;;7.10;95864.00;;;;8300325;28;20214;-82
2023/12/10 14:53:42;;;;;;;15.47;3.47;;;;;6.90;95863.00;;;;8316170;28;20201;-87
2023/12/10 14:57:47;;;;;;;7.10;3.30;;;;;6.70;95862.00;;;;8319960;28;20292;-85
2023/12/10 15:01:50;;;;;;;9.40;3.20;;;;;6.70;95871.00;;;;8309259;28;20324;-84
2023/12/10 15:06:08;;;;;;;17.30;4.17;;;;;6.60;95875.00;;;;8310943;28;20212;-83
2023/12/10 15:10:12;;;;;;;70.30;23.93;;;;;6.70;95877.00;;;;8311607;28;20197;-80
2023/12/10 15:14:17;;;;;;;451.17;254.30;;;;;6.80;95887.00;;;;8314572;28;20205;-79
2023/12/10 15:18:21;;;;;;;35.50;21.73;;;;;6.90;95884.00;;;;8312777;28;20198;-81
2023/12/10 15:22:25;;;;;;;21.37;9.27;;;;;7.00;95869.00;;;;8314648;28;20221;-81
2023/12/10 15:26:29;;;;;;;34.53;20.17;;;;;7.00;95858.00;;;;8313258;28;20208;-80
2023/12/10 15:30:34;;;;;;;34.80;16.57;;;;;7.00;95855.00;;;;8315010;28;20241;-82
2023/12/10 15:34:38;;;;;;;29.23;13.80;;;;;6.90;95845.00;;;;8315861;28;20202;-80
2023/12/10 15:38:42;;;;;;;23.40;7.50;;;;;6.70;95842.00;;;;8314791;28;20272;-81
2023/12/10 15:42:45;;;;;;;66.30;34.50;;;;;6.60;95850.00;;;;8313542;28;20236;-82
2023/12/10 15:46:50;;;;;;;14.53;3.87;;;;;6.60;95855.00;;;;8312755;28;20284;-79
2023/12/10 15:50:53;;;;;;;17.03;5.03;;;;;6.50;95849.00;;;;8314612;28;20233;-80
2023/12/10 15:54:56;;;;;;;110.97;57.83;;;;;6.60;95837.00;;;;8310773;28;20736;-80
2023/12/10 15:59:00;;;;;;;112.07;64.17;;;;;6.60;95847.00;;;;8313545;28;20201;-78
2023/12/10 16:03:04;;;;;;;76.57;43.57;;;;;6.50;95842.00;;;;8319250;28;20308;-81
2023/12/10 16:07:08;;;;;;;161.43;100.23;;;;;6.40;95850.00;;;;8310765;28;20202;-82
2023/12/10 16:11:11;;;;;;;15.73;6.73;;;;;6.30;95851.00;;;;8316425;28;20204;-82
2023/12/10 16:15:15;;;;;;;6.30;2.97;;;;;6.30;95840.00;;;;8317825;28;20227;-82
2023/12/10 16:19:20;;;;;;;5.73;2.73;;;;;6.30;95839.00;;;;8313100;28;20718;-79
2023/12/10 16:23:24;;;;;;;15.87;2.50;;;;;6.30;95845.00;;;;8315707;28;20225;-81
2023/12/10 16:27:28;;;;;;;11.93;2.73;;;;;6.40;95848.00;;;;8310529;28;20260;-78
2023/12/10 16:31:32;;;;;;;10.60;3.17;;;;;6.50;95846.00;;;;8307144;28;20290;-77
2023/12/10 16:35:37;;;;;;;72.80;30.67;;;;;6.60;95840.00;;;;8313211;28;20276;-79
2023/12/10 16:39:40;;;;;;;726.23;344.57;;;;;6.60;95839.00;;;;8305669;28;20292;-78
2023/12/10 16:43:44;;;;;;;206.27;73.57;;;;;6.60;95839.00;;;;8306503;28;20222;-77
2023/12/10 16:47:49;;;;;;;418.10;136.03;;;;;6.60;95841.00;;;;8304952;28;20484;-77
2023/12/10 16:51:55;;;;;;;1999.90;999.90;;;;;6.70;95846.00;;;;8304835;28;20835;-79
2023/12/10 16:55:59;;;;;;;1999.90;709.10;;;;;6.70;95823.00;;;;8304055;28;20193;-81
2023/12/10 17:00:04;;;;;;;1110.67;391.20;;;;;6.60;95821.00;;;;8309775;28;20200;-82
2023/12/10 17:04:07;;;;;;;1913.33;537.93;;;;;6.60;95815.00;;;;8324166;28;20310;-81
2023/12/10 17:08:12;;;;;;;1003.63;310.73;;;;;6.60;95822.00;;;;8344947;28;20200;-81
2023/12/10 17:12:15;;;;;;;1363.90;403.73;;;;;6.70;95807.00;;;;8343259;28;20196;-82
2023/12/10 17:16:19;;;;;;;204.03;71.80;;;;;6.60;95806.00;;;;8346260;28;20561;-80
2023/12/10 17:20:22;;;;;;;72.50;30.53;;;;;6.60;95802.00;;;;8344656;28;20262;-83
2023/12/10 17:24:27;;;;;;;89.10;38.93;;;;;6.60;95794.00;;;;8341372;28;20248;-81
2023/12/10 17:28:30;;;;;;;117.53;60.50;;;;;6.60;95784.00;;;;8352644;28;20243;-86
2023/12/10 17:32:33;;;;;;;35.63;17.23;;;;;6.60;95791.00;;;;8343414;28;20271;-82
2023/12/10 17:36:36;;;;;;;13.97;4.50;;;;;6.70;95789.00;;;;8339984;28;21582;-82
2023/12/10 17:40:41;;;;;;;18.23;4.33;;;;;6.70;95790.00;;;;8347249;28;20197;-83
2023/12/10 17:44:45;;;;;;;681.20;211.90;;;;;6.70;95775.00;;;;8344405;28;20291;-84
2023/12/10 17:48:59;;;;;;;48.97;22.10;;;;;6.70;95776.00;;;;8347447;28;20203;-86
2023/12/10 17:53:02;;;;;;;23.13;9.00;;;;;6.80;95771.00;;;;8342446;28;20200;-83
2023/12/10 17:57:08;;;;;;;22.90;9.40;;;;;6.90;95762.00;;;;8332230;28;20731;-82
2023/12/10 18:01:12;;;;;;;12.93;4.47;;;;;7.00;95749.00;;;;8336512;28;20288;-82
2023/12/10 18:05:15;;;;;;;13.93;4.40;;;;;7.00;95734.00;;;;8342874;28;20570;-81
2023/12/10 18:09:18;;;;;;;24.30;9.67;;;;;6.90;95726.00;;;;8348511;28;20854;-82
2023/12/10 18:13:23;;;;;;;18.50;3.60;;;;;6.90;95715.00;;;;8343753;28;20203;-81
2023/12/10 18:17:26;;;;;;;48.67;26.30;;;;;6.90;95696.00;;;;8342755;28;20327;-82
2023/12/10 18:21:30;;;;;;;15.77;6.50;;;;;6.90;95704.00;;;;8345962;28;20193;-83
2023/12/10 18:25:34;;;;;;;13.63;2.97;;;;;6.80;95699.00;;;;8332263;28;20231;-84
2023/12/10 18:29:39;;;;;;;12.87;2.70;;;;;6.80;95684.00;;;;8342342;28;20785;-83
2023/12/10 18:33:43;;;;;;;11.03;2.63;;;;;6.70;95673.00;;;;8338307;28;20284;-82
2023/12/10 18:37:46;;;;;;;19.83;2.57;;;;;6.70;95658.00;;;;8347556;28;20221;-83
2023/12/10 18:41:49;;;;;;;12.67;2.90;;;;;6.70;95659.00;;;;8345091;28;20899;-87
2023/12/10 18:45:54;;;;;;;11.77;2.60;;;;;6.70;95666.00;;;;8348624;28;20199;-84
2023/12/10 18:49:58;;;;;;;16.83;2.60;;;;;6.80;95656.00;;;;8353415;28;20299;-84
2023/12/10 18:54:02;;;;;;;13.07;2.77;;;;;6.90;95631.00;;;;8346881;28;20364;-82
2023/12/10 18:58:06;;;;;;;18.77;3.93;;;;;7.00;95632.00;;;;8340602;28;20212;-83
2023/12/10 19:02:11;;;;;;;14.47;3.03;;;;;7.00;95627.00;;;;8342388;28;20224;-83
2023/12/10 19:06:15;;;;;;;18.53;4.17;;;;;7.00;95619.00;;;;8317115;28;20730;-81
2023/12/10 19:10:19;;;;;;;18.90;3.53;;;;;6.90;95605.00;;;;8308191;28;20205;-83
2023/12/10 19:14:24;;;;;;;18.47;4.30;;;;;7.00;95614.00;;;;8306056;28;20225;-84
2023/12/10 19:18:29;;;;;;;822.63;376.30;;;;;6.90;95607.00;;;;8304783;28;20224;-81
2023/12/10 19:22:33;;;;;;;202.50;79.50;;;;;6.90;95597.00;;;;8311044;28;20221;-82
2023/12/10 19:26:36;;;;;;;20.53;8.57;;;;;6.80;95588.00;;;;8302059;28;20198;-83
2023/12/10 19:30:40;;;;;;;17.43;5.00;;;;;6.60;95570.00;;;;8298043;28;20817;-83
2023/12/10 19:34:45;;;;;;;15.37;4.90;;;;;6.40;95571.00;;;;8300239;28;20256;-83
2023/12/10 19:38:49;;;;;;;13.67;4.10;;;;;6.10;95562.00;;;;8318013;28;20197;-82
2023/12/10 19:42:52;;;;;;;27.23;3.87;;;;;5.90;95564.00;;;;8299666;28;20261;-83
2023/12/10 19:46:55;;;;;;;14.53;3.40;;;;;5.80;95564.00;;;;8294197;28;20628;-84
2023/12/10 19:51:01;;;;;;;17.00;3.90;;;;;5.70;95541.00;;;;8297628;28;21008;-83
2023/12/10 19:55:05;;;;;;;20.73;4.07;;;;;5.50;95533.00;;;;8295314;28;20288;-86
2023/12/10 19:59:09;;;;;;;14.73;3.57;;;;;5.50;95526.00;;;;8297871;28;20206;-83
2023/12/10 20:03:12;;;;;;;17.93;4.60;;;;;5.50;95528.00;;;;8307549;28;20244;-83
2023/12/10 20:07:17;;;;;;;15.67;4.17;;;;;5.50;95514.00;;;;8350204;28;20284;-85
2023/12/10 20:11:20;;;;;;;16.53;3.90;;;;;5.60;95517.00;;;;8347649;28;20201;-83
2023/12/10 20:15:24;;;;;;;18.00;7.90;;;;;5.70;95511.00;;;;8348768;28;20196;-84
2023/12/10 20:19:27;;;;;;;15.97;4.10;;;;;5.80;95488.00;;;;8345608;28;20197;-82